createdAt,value
2018-12-03T00:02:17.356Z,10.10
2018-12-03T00:04:45.546Z,10.08
2018-12-03T00:07:13.720Z,10.25
2018-12-03T00:09:41.901Z,9.08
2018-12-03T00:12:10.071Z,7.40
2018-12-03T00:14:38.265Z,8.38
2018-12-03T00:17:06.478Z,9.45
2018-12-03T00:19:34.655Z,8.35
2018-12-03T00:22:02.823Z,9.23
2018-12-03T00:24:31.020Z,9.40
2018-12-03T00:26:59.207Z,9.98
2018-12-03T00:29:27.381Z,9.65
2018-12-03T00:31:55.556Z,9.35
2018-12-03T00:34:23.746Z,10.03
2018-12-03T00:36:51.965Z,8.55
2018-12-03T00:39:20.160Z,9.58
2018-12-03T00:41:48.321Z,8.75
2018-12-03T00:44:16.505Z,9.80
2018-12-03T00:46:44.682Z,10.43
2018-12-03T00:49:12.855Z,8.35
2018-12-03T00:51:40.997Z,10.35
2018-12-03T00:54:09.151Z,10.75
2018-12-03T00:56:37.305Z,9.40
2018-12-03T00:59:05.861Z,9.55
2018-12-03T01:01:35.272Z,11.75
2018-12-03T01:04:04.119Z,11.40
2018-12-03T01:06:32.276Z,10.65
2018-12-03T01:09:00.461Z,10.88
2018-12-03T01:11:28.612Z,11.60
2018-12-03T01:13:56.791Z,11.73
2018-12-03T01:16:24.939Z,12.40
2018-12-03T01:18:53.077Z,12.03
2018-12-03T01:21:21.261Z,12.60
2018-12-03T01:23:49.422Z,12.25
2018-12-03T01:26:17.594Z,12.13
2018-12-03T01:28:45.747Z,10.53
2018-12-03T01:31:13.907Z,10.78
2018-12-03T01:33:42.046Z,10.38
2018-12-03T01:36:10.219Z,9.25
2018-12-03T01:38:38.360Z,8.78
2018-12-03T01:41:06.668Z,8.43
2018-12-03T01:43:34.813Z,8.13
2018-12-03T01:46:02.969Z,8.83
2018-12-03T01:48:31.160Z,8.33
2018-12-03T01:50:59.348Z,8.60
2018-12-03T01:53:27.516Z,7.97
2018-12-03T01:55:55.700Z,8.30
2018-12-03T01:58:23.881Z,7.47
2018-12-03T02:00:52.059Z,7.03
2018-12-03T02:03:20.266Z,7.33
2018-12-03T02:05:48.476Z,5.75
2018-12-03T02:08:16.665Z,6.97
2018-12-03T02:10:44.844Z,6.62
2018-12-03T02:13:13.055Z,6.20
2018-12-03T02:15:41.236Z,7.28
2018-12-03T02:18:09.409Z,5.60
2018-12-03T02:20:37.611Z,6.10
2018-12-03T02:23:05.789Z,5.62
2018-12-03T02:25:33.981Z,6.58
2018-12-03T02:28:02.158Z,6.12
2018-12-03T02:30:30.344Z,6.65
2018-12-03T02:32:58.548Z,5.85
2018-12-03T02:35:26.797Z,6.70
2018-12-03T02:37:54.979Z,4.90
2018-12-03T02:40:23.140Z,5.90
2018-12-03T02:42:51.350Z,5.72
2018-12-03T02:45:19.536Z,5.08
2018-12-03T02:47:47.755Z,4.92
2018-12-03T02:50:15.911Z,5.05
2018-12-03T02:52:44.075Z,5.55
2018-12-03T02:55:12.903Z,5.40
2018-12-03T02:57:41.064Z,5.28
2018-12-03T03:00:15.593Z,4.17
2018-12-03T03:02:43.930Z,4.40
2018-12-03T03:05:13.965Z,4.42
2018-12-03T03:07:42.235Z,3.52
2018-12-03T03:10:11.750Z,3.33
2018-12-03T03:12:39.994Z,2.70
2018-12-03T03:15:10.345Z,2.33
2018-12-03T03:17:39.046Z,2.50
2018-12-03T03:20:09.444Z,2.72
2018-12-03T03:22:37.617Z,4.40
2018-12-03T03:25:06.713Z,3.98
2018-12-03T03:27:34.864Z,5.25
2018-12-03T03:30:03.004Z,6.78
2018-12-03T03:32:31.167Z,7.45
2018-12-03T03:34:59.325Z,6.03
2018-12-03T03:37:27.483Z,8.53
2018-12-03T03:39:55.644Z,9.65
2018-12-03T03:42:23.766Z,9.90
2018-12-03T03:44:52.007Z,9.00
2018-12-03T03:47:20.171Z,10.60
2018-12-03T03:49:48.355Z,8.70
2018-12-03T03:52:16.553Z,9.63
2018-12-03T03:54:44.729Z,9.23
2018-12-03T03:57:12.905Z,7.80
2018-12-03T03:59:41.076Z,7.55
2018-12-03T04:02:09.260Z,8.85
2018-12-03T04:04:37.435Z,9.08
2018-12-03T04:07:05.637Z,9.65
2018-12-03T04:09:33.828Z,8.93
2018-12-03T04:12:02.041Z,7.78
2018-12-03T04:14:30.238Z,8.80
2018-12-03T04:16:58.474Z,8.83
2018-12-03T04:19:26.716Z,6.53
2018-12-03T04:21:54.910Z,7.92
2018-12-03T04:24:23.097Z,6.78
2018-12-03T04:26:51.310Z,5.72
2018-12-03T04:29:19.501Z,5.03
2018-12-03T04:31:47.717Z,5.00
2018-12-03T04:34:15.899Z,4.42
2018-12-03T04:36:44.086Z,3.40
2018-12-03T04:39:12.353Z,3.50
2018-12-03T04:41:40.517Z,3.87
2018-12-03T04:44:08.707Z,4.12
2018-12-03T04:46:36.919Z,3.50
2018-12-03T04:49:05.367Z,3.33
2018-12-03T04:51:33.593Z,3.27
2018-12-03T04:54:01.797Z,3.65
2018-12-03T04:56:30.017Z,2.98
2018-12-03T04:58:58.214Z,3.30
2018-12-03T05:01:26.432Z,3.05
2018-12-03T05:03:54.679Z,3.27
2018-12-03T05:06:22.944Z,3.17
2018-12-03T05:08:51.264Z,3.20
2018-12-03T05:11:19.419Z,2.75
2018-12-03T05:13:47.635Z,3.30
2018-12-03T05:16:15.808Z,3.08
2018-12-03T05:18:43.986Z,2.90
2018-12-03T05:21:12.172Z,3.20
2018-12-03T05:23:40.348Z,3.47
2018-12-03T05:26:08.524Z,3.35
2018-12-03T05:28:36.699Z,3.30
2018-12-03T05:31:04.912Z,3.17
2018-12-03T05:33:33.092Z,4.00
2018-12-03T05:36:01.261Z,3.40
2018-12-03T05:38:29.444Z,4.62
2018-12-03T05:40:57.698Z,4.92
2018-12-03T05:43:25.884Z,5.60
2018-12-03T05:45:54.043Z,4.72
2018-12-03T05:48:22.217Z,4.75
2018-12-03T05:50:50.361Z,5.45
2018-12-03T05:53:18.525Z,4.92
2018-12-03T05:55:46.668Z,5.40
2018-12-03T05:58:14.836Z,4.85
2018-12-03T06:00:42.980Z,4.65
2018-12-03T06:03:11.172Z,4.90
2018-12-03T06:05:39.344Z,4.42
2018-12-03T06:08:07.528Z,4.40
2018-12-03T06:10:35.691Z,4.97
2018-12-03T06:13:03.911Z,5.40
2018-12-03T06:15:32.077Z,5.17
2018-12-03T06:18:00.280Z,6.05
2018-12-03T06:20:28.463Z,5.70
2018-12-03T06:22:56.633Z,5.80
2018-12-03T06:25:26.461Z,4.65
2018-12-03T06:27:54.669Z,4.58
2018-12-03T06:30:23.779Z,4.58
2018-12-03T06:32:52.081Z,3.60
2018-12-03T06:35:20.896Z,3.98
2018-12-03T06:37:49.500Z,4.08
2018-12-03T06:40:20.750Z,3.58
2018-12-03T06:42:48.936Z,3.83
2018-12-03T06:45:18.328Z,4.70
2018-12-03T06:47:53.265Z,4.37
2018-12-03T06:50:21.446Z,3.77
2018-12-03T06:52:49.587Z,4.53
2018-12-03T06:55:17.747Z,4.03
2018-12-03T06:57:45.912Z,5.50
2018-12-03T07:00:15.247Z,4.70
2018-12-03T07:02:43.639Z,5.53
2018-12-03T07:05:11.884Z,5.87
2018-12-03T07:07:40.580Z,6.25
2018-12-03T07:10:11.747Z,5.78
2018-12-03T07:12:39.988Z,6.67
2018-12-03T07:15:12.543Z,6.22
2018-12-03T07:17:40.719Z,7.10
2018-12-03T07:20:12.616Z,7.70
2018-12-03T07:22:40.816Z,6.72
2018-12-03T07:25:10.089Z,7.67
2018-12-03T07:27:38.331Z,7.53
2018-12-03T07:30:14.483Z,6.78
2018-12-03T07:32:42.688Z,6.20
2018-12-03T07:35:10.848Z,6.62
2018-12-03T07:37:38.974Z,5.97
2018-12-03T07:40:08.865Z,5.70
2018-12-03T07:42:37.052Z,4.17
2018-12-03T07:45:08.792Z,5.25
2018-12-03T07:47:36.931Z,4.37
2018-12-03T07:50:07.595Z,5.12
2018-12-03T07:52:36.677Z,5.53
2018-12-03T07:55:04.251Z,5.40
2018-12-03T07:57:32.384Z,4.80
2018-12-03T08:00:00.541Z,5.37
2018-12-03T08:02:28.689Z,5.42
2018-12-03T08:04:56.829Z,5.85
2018-12-03T08:07:24.961Z,5.20
2018-12-03T08:09:53.106Z,5.42
2018-12-03T08:12:21.251Z,5.60
2018-12-03T08:14:49.456Z,5.47
2018-12-03T08:17:17.592Z,5.92
2018-12-03T08:19:45.756Z,5.33
2018-12-03T08:22:14.673Z,5.83
2018-12-03T08:24:42.807Z,5.65
2018-12-03T08:27:11.078Z,5.60
2018-12-03T08:29:39.242Z,5.53
2018-12-03T08:32:07.421Z,5.05
2018-12-03T08:34:35.652Z,5.47
2018-12-03T08:37:03.821Z,5.45
2018-12-03T08:39:31.963Z,4.65
2018-12-03T08:42:00.096Z,5.42
2018-12-03T08:44:30.593Z,5.05
2018-12-03T08:47:04.720Z,5.17
2018-12-03T08:49:33.019Z,4.85
2018-12-03T08:52:01.213Z,4.62
2018-12-03T08:54:29.340Z,4.83
2018-12-03T08:56:57.497Z,5.28
2018-12-03T08:59:25.648Z,4.08
2018-12-03T09:01:54.356Z,4.75
2018-12-03T09:04:22.518Z,4.90
2018-12-03T09:06:50.965Z,4.17
2018-12-03T09:09:19.147Z,5.03
2018-12-03T09:11:49.008Z,4.45
2018-12-03T09:14:18.508Z,5.12
2018-12-03T09:16:46.659Z,5.37
2018-12-03T09:19:14.813Z,4.58
2018-12-03T09:21:42.960Z,5.55
2018-12-03T09:24:11.100Z,3.60
2018-12-03T09:26:41.254Z,5.00
2018-12-03T09:29:09.393Z,4.70
2018-12-03T09:31:37.544Z,4.85
2018-12-03T09:34:05.680Z,4.83
2018-12-03T09:36:33.826Z,6.08
2018-12-03T09:39:15.432Z,4.75
2018-12-03T09:41:44.189Z,4.60
2018-12-03T09:44:12.550Z,4.40
2018-12-03T09:46:40.653Z,4.10
2018-12-03T09:49:08.862Z,4.55
2018-12-03T09:51:37.514Z,4.80
2018-12-03T09:54:08.031Z,4.28
2018-12-03T09:56:46.844Z,4.37
2018-12-03T09:59:17.149Z,4.70
2018-12-03T10:01:46.756Z,4.97
2018-12-03T10:04:21.176Z,4.78
2018-12-03T10:06:49.293Z,4.72
2018-12-03T10:09:17.449Z,4.33
2018-12-03T10:11:45.596Z,4.47
2018-12-03T10:14:17.564Z,4.35
2018-12-03T10:16:45.700Z,5.12
2018-12-03T10:19:13.817Z,3.72
2018-12-03T10:21:45.913Z,4.17
2018-12-03T10:24:14.373Z,4.20
2018-12-03T10:26:42.900Z,4.58
2018-12-03T10:29:15.497Z,5.67
2018-12-03T10:31:43.822Z,5.05
2018-12-03T10:34:15.382Z,4.85
2018-12-03T10:36:52.437Z,4.75
2018-12-03T10:39:22.501Z,4.42
2018-12-03T10:41:58.408Z,4.72
2018-12-03T10:44:26.547Z,4.37
2018-12-03T10:46:54.728Z,4.20
2018-12-03T10:49:23.205Z,4.95
2018-12-03T10:51:51.578Z,4.95
2018-12-03T10:54:19.865Z,4.42
2018-12-03T10:56:48.016Z,4.50
2018-12-03T10:59:16.154Z,4.83
2018-12-03T11:01:49.976Z,3.50
2018-12-03T11:04:23.650Z,4.58
2018-12-03T11:06:52.096Z,4.67
2018-12-03T11:09:20.509Z,5.03
2018-12-03T11:11:49.049Z,5.22
2018-12-03T11:14:17.200Z,4.87
2018-12-03T11:16:46.960Z,5.92
2018-12-03T11:19:15.117Z,4.87
2018-12-03T11:21:43.224Z,5.87
2018-12-03T11:24:14.948Z,4.58
2018-12-03T11:26:44.886Z,5.33
2018-12-03T11:29:13.105Z,4.90
2018-12-03T11:31:41.281Z,5.20
2018-12-03T11:34:09.420Z,5.58
2018-12-03T11:36:45.872Z,5.53
2018-12-03T11:39:54.241Z,4.08
2018-12-03T11:42:23.285Z,5.65
2018-12-03T11:44:51.416Z,4.58
2018-12-03T11:47:19.540Z,5.03
2018-12-03T11:49:47.732Z,4.90
2018-12-03T11:52:15.859Z,4.70
2018-12-03T11:54:44.032Z,4.60
2018-12-03T11:57:12.209Z,5.75
2018-12-03T11:59:40.321Z,4.60
2018-12-03T12:02:09.330Z,4.65
2018-12-03T12:04:37.505Z,5.08
2018-12-03T12:07:05.753Z,4.85
2018-12-03T12:09:33.917Z,4.83
2018-12-03T12:12:02.077Z,4.65
2018-12-03T12:14:30.196Z,4.87
2018-12-03T12:16:58.333Z,5.12
2018-12-03T12:19:26.499Z,5.22
2018-12-03T12:21:54.657Z,4.45
2018-12-03T12:24:22.793Z,4.62
2018-12-03T12:26:52.134Z,4.53
2018-12-03T12:29:20.284Z,5.60
2018-12-03T12:31:48.423Z,5.00
2018-12-03T12:34:16.554Z,5.45
2018-12-03T12:36:44.684Z,5.42
2018-12-03T12:39:12.816Z,5.35
2018-12-03T12:41:41.766Z,5.60
2018-12-03T12:44:11.118Z,6.92
2018-12-03T12:46:45.468Z,6.05
2018-12-03T12:49:13.593Z,6.17
2018-12-03T12:51:41.768Z,6.45
2018-12-03T12:54:09.960Z,6.95
2018-12-03T12:56:38.192Z,7.42
2018-12-03T12:59:06.847Z,5.78
2018-12-03T13:01:35.047Z,6.92
2018-12-03T13:04:03.223Z,6.03
2018-12-03T13:06:31.404Z,6.90
2018-12-03T13:08:59.545Z,6.47
2018-12-03T13:11:27.703Z,6.95
2018-12-03T13:13:55.872Z,5.92
2018-12-03T13:16:24.055Z,5.65
2018-12-03T13:18:52.243Z,5.95
2018-12-03T13:21:20.425Z,5.72
2018-12-03T13:23:48.610Z,6.80
2018-12-03T13:26:17.028Z,5.60
2018-12-03T13:28:45.207Z,6.50
2018-12-03T13:31:13.413Z,5.65
2018-12-03T13:33:41.599Z,5.47
2018-12-03T13:36:10.274Z,5.60
2018-12-03T13:38:38.502Z,4.90
2018-12-03T13:41:06.924Z,5.58
2018-12-03T13:43:35.113Z,5.28
2018-12-03T13:46:03.301Z,5.45
2018-12-03T13:48:31.485Z,5.45
2018-12-03T13:50:59.674Z,5.80
2018-12-03T13:53:27.852Z,5.15
2018-12-03T13:55:56.073Z,5.95
2018-12-03T13:58:24.316Z,4.25
2018-12-03T14:00:52.625Z,4.67
2018-12-03T14:03:24.784Z,5.15
2018-12-03T14:06:12.981Z,4.60
2018-12-03T14:09:02.780Z,5.00
2018-12-03T14:11:44.289Z,4.45
2018-12-03T14:14:23.149Z,4.58
2018-12-03T14:17:03.626Z,3.83
2018-12-03T14:19:32.604Z,4.00
2018-12-03T14:22:04.485Z,3.52
2018-12-03T14:24:32.665Z,3.95
2018-12-03T14:27:00.966Z,2.80
2018-12-03T14:29:29.205Z,3.55
2018-12-03T14:31:57.632Z,2.77
2018-12-03T14:34:27.266Z,2.83
2018-12-03T14:36:55.338Z,2.85
2018-12-03T14:39:23.532Z,3.10
2018-12-03T14:41:51.676Z,3.30
2018-12-03T14:44:19.855Z,3.22
2018-12-03T14:46:48.004Z,4.17
2018-12-03T14:49:16.177Z,2.85
2018-12-03T14:51:44.521Z,3.27
2018-12-03T14:54:12.684Z,2.87
2018-12-03T14:56:40.824Z,3.10
2018-12-03T14:59:09.044Z,2.85
2018-12-03T15:01:37.197Z,3.67
2018-12-03T15:04:10.782Z,3.17
2018-12-03T15:06:39.337Z,3.22
2018-12-03T15:09:07.720Z,3.00
2018-12-03T15:11:35.969Z,2.35
2018-12-03T15:14:44.934Z,2.90
2018-12-03T15:17:13.549Z,2.30
2018-12-03T15:19:41.069Z,3.83
2018-12-03T15:22:08.645Z,2.70
2018-12-03T15:24:36.144Z,2.95
2018-12-03T15:27:03.636Z,2.98
2018-12-03T15:29:31.120Z,3.15
2018-12-03T15:31:58.655Z,2.37
2018-12-03T15:34:26.158Z,3.47
2018-12-03T15:36:53.724Z,3.17
2018-12-03T15:39:21.361Z,2.40
2018-12-03T15:41:49.884Z,3.37
2018-12-03T15:44:17.445Z,2.55
2018-12-03T15:46:44.944Z,2.95
2018-12-03T15:49:12.549Z,2.70
2018-12-03T15:51:40.306Z,2.77
2018-12-03T15:54:07.870Z,2.77
2018-12-03T15:56:35.352Z,2.80
2018-12-03T15:59:02.927Z,3.00
2018-12-03T16:01:30.767Z,2.65
2018-12-03T16:03:58.248Z,3.20
2018-12-03T16:06:25.858Z,3.37
2018-12-03T16:08:53.886Z,3.27
2018-12-03T16:11:21.400Z,3.52
2018-12-03T16:13:51.655Z,2.50
2018-12-03T16:16:20.809Z,2.85
2018-12-03T16:18:49.959Z,3.00
2018-12-03T16:21:19.497Z,2.90
2018-12-03T16:23:47.111Z,3.15
2018-12-03T16:26:14.615Z,3.12
2018-12-03T16:28:42.118Z,2.92
2018-12-03T16:31:09.769Z,3.15
2018-12-03T16:33:37.373Z,2.80
2018-12-03T16:36:04.887Z,3.55
2018-12-03T16:38:32.403Z,3.80
2018-12-03T16:40:59.981Z,2.87
2018-12-03T16:43:27.470Z,2.77
2018-12-03T16:45:55.022Z,2.52
2018-12-03T16:48:24.907Z,3.05
2018-12-03T16:50:52.462Z,2.85
2018-12-03T16:53:20.075Z,3.80
2018-12-03T16:55:47.621Z,3.37
2018-12-03T16:58:15.115Z,2.77
2018-12-03T17:00:42.611Z,3.27
2018-12-03T17:03:10.101Z,2.77
2018-12-03T17:05:37.584Z,3.65
2018-12-03T17:08:05.078Z,3.25
2018-12-03T17:10:32.599Z,3.12
2018-12-03T17:13:00.163Z,2.80
2018-12-03T17:15:27.648Z,3.02
2018-12-03T17:17:55.087Z,3.58
2018-12-03T17:20:23.815Z,3.87
2018-12-03T17:22:51.497Z,3.60
2018-12-03T17:25:18.981Z,3.30
2018-12-03T17:27:46.439Z,3.37
2018-12-03T17:30:14.021Z,3.05
2018-12-03T17:32:41.452Z,3.12
2018-12-03T17:35:08.909Z,3.52
2018-12-03T17:37:36.350Z,3.60
2018-12-03T17:40:05.415Z,4.42
2018-12-03T17:42:32.853Z,3.70
2018-12-03T17:45:00.305Z,4.33
2018-12-03T17:47:28.506Z,4.33
2018-12-03T17:49:56.077Z,5.03
2018-12-03T17:52:23.585Z,4.60
2018-12-03T17:54:51.129Z,5.15
2018-12-03T17:57:18.615Z,5.20
2018-12-03T17:59:46.501Z,4.28
2018-12-03T18:02:14.962Z,5.78
2018-12-03T18:04:42.811Z,4.53
2018-12-03T18:07:10.325Z,5.50
2018-12-03T18:09:37.877Z,5.45
2018-12-03T18:12:05.432Z,4.62
2018-12-03T18:14:32.869Z,5.37
2018-12-03T18:17:00.333Z,6.80
2018-12-03T18:19:27.842Z,6.78
2018-12-03T18:21:55.405Z,7.28
2018-12-03T18:24:22.987Z,7.58
2018-12-03T18:26:52.994Z,8.08
2018-12-03T18:29:20.432Z,7.33
2018-12-03T18:31:47.936Z,8.88
2018-12-03T18:34:15.353Z,7.20
2018-12-03T18:36:42.854Z,7.75
2018-12-03T18:39:11.133Z,7.70
2018-12-03T18:41:38.611Z,7.95
2018-12-03T18:44:06.242Z,7.75
2018-12-03T18:46:33.817Z,8.20
2018-12-03T18:49:01.649Z,7.72
2018-12-03T18:51:29.106Z,7.53
2018-12-03T18:53:57.764Z,8.28
2018-12-03T18:56:25.309Z,7.53
2018-12-03T18:58:52.906Z,7.33
2018-12-03T19:01:20.580Z,7.12
2018-12-03T19:03:48.216Z,7.35
2018-12-03T19:06:15.858Z,7.55
2018-12-03T19:08:43.378Z,7.42
2018-12-03T19:11:10.826Z,6.37
2018-12-03T19:13:38.268Z,7.40
2018-12-03T19:16:05.716Z,7.62
2018-12-03T19:18:33.297Z,6.55
2018-12-03T19:21:00.755Z,7.05
2018-12-03T19:23:28.258Z,6.45
2018-12-03T19:25:56.297Z,6.35
2018-12-03T19:28:24.037Z,5.72
2018-12-03T19:30:52.489Z,6.50
2018-12-03T19:33:20.146Z,6.62
2018-12-03T19:35:47.770Z,6.37
2018-12-03T19:38:15.505Z,5.95
2018-12-03T19:40:42.995Z,6.10
2018-12-03T19:43:10.568Z,6.83
2018-12-03T19:45:38.893Z,7.25
2018-12-03T19:48:06.616Z,6.62
2018-12-03T19:50:34.314Z,6.95
2018-12-03T19:53:02.133Z,7.95
2018-12-03T19:55:29.866Z,7.17
2018-12-03T19:57:57.368Z,8.03
2018-12-03T20:00:24.854Z,7.40
2018-12-03T20:02:52.383Z,6.95
2018-12-03T20:05:19.865Z,8.43
2018-12-03T20:07:47.314Z,6.72
2018-12-03T20:10:14.756Z,7.37
2018-12-03T20:12:42.216Z,6.87
2018-12-03T20:15:09.673Z,8.33
2018-12-03T20:17:37.209Z,6.80
2018-12-03T20:20:06.333Z,6.20
2018-12-03T20:22:33.905Z,6.42
2018-12-03T20:25:01.458Z,6.22
2018-12-03T20:27:29.392Z,8.25
2018-12-03T20:29:56.964Z,7.80
2018-12-03T20:32:24.637Z,7.30
2018-12-03T20:34:52.217Z,6.33
2018-12-03T20:37:22.832Z,7.00
2018-12-03T20:39:54.163Z,7.40
2018-12-03T20:42:21.852Z,6.55
2018-12-03T20:44:49.413Z,6.33
2018-12-03T20:47:16.864Z,6.10
2018-12-03T20:49:44.445Z,6.28
2018-12-03T20:52:12.058Z,5.60
2018-12-03T20:54:39.501Z,6.17
2018-12-03T20:57:07.154Z,5.28
2018-12-03T20:59:34.716Z,5.65
2018-12-03T21:02:02.691Z,6.15
2018-12-03T21:04:30.172Z,5.58
2018-12-03T21:06:57.665Z,5.53
2018-12-03T21:09:25.120Z,5.65
2018-12-03T21:11:52.642Z,6.40
2018-12-03T21:14:20.353Z,5.55
2018-12-03T21:16:47.924Z,5.70
2018-12-03T21:19:15.377Z,7.33
2018-12-03T21:21:42.881Z,6.70
2018-12-03T21:24:10.312Z,7.28
2018-12-03T21:26:37.759Z,6.10
2018-12-03T21:29:05.209Z,5.90
2018-12-03T21:31:32.658Z,5.83
2018-12-03T21:34:00.198Z,6.05
2018-12-03T21:36:27.722Z,6.20
2018-12-03T21:38:55.159Z,4.97
2018-12-03T21:41:22.608Z,7.22
2018-12-03T21:43:50.072Z,7.58
2018-12-03T21:46:17.610Z,5.50
2018-12-03T21:48:45.089Z,7.05
2018-12-03T21:51:12.554Z,7.33
2018-12-03T21:53:40.013Z,5.70
2018-12-03T21:56:07.671Z,6.83
2018-12-03T21:58:35.211Z,7.30
2018-12-03T22:01:02.677Z,6.80
2018-12-03T22:03:30.149Z,6.47
2018-12-03T22:05:57.695Z,7.45
2018-12-03T22:08:25.141Z,4.97
2018-12-03T22:10:52.577Z,2.30
2018-12-03T22:13:20.038Z,1.67
2018-12-03T22:15:47.480Z,1.30
2018-12-03T22:18:15.051Z,0.95
2018-12-03T22:20:42.828Z,1.27
2018-12-03T22:23:10.309Z,1.15
2018-12-03T22:25:37.754Z,1.50
2018-12-03T22:28:05.190Z,1.52
2018-12-03T22:30:32.655Z,1.82
2018-12-03T22:33:00.678Z,1.35
2018-12-03T22:35:29.050Z,1.40
2018-12-03T22:37:56.512Z,1.10
2018-12-03T22:40:24.673Z,1.62
2018-12-03T22:42:53.130Z,1.40
2018-12-03T22:45:20.657Z,1.70
2018-12-03T22:47:49.008Z,2.10
2018-12-03T22:50:16.474Z,1.82
2018-12-03T22:52:44.208Z,1.55
2018-12-03T22:55:11.669Z,1.57
2018-12-03T22:57:40.236Z,2.02
2018-12-03T23:00:13.364Z,1.60
2018-12-03T23:02:41.617Z,1.02
2018-12-03T23:05:09.152Z,1.25
2018-12-03T23:07:37.452Z,0.82
2018-12-03T23:10:05.714Z,1.02
2018-12-03T23:12:33.388Z,1.27
2018-12-03T23:15:00.848Z,1.00
2018-12-03T23:17:29.408Z,0.93
2018-12-03T23:19:57.058Z,1.60
2018-12-03T23:22:24.558Z,0.82
2018-12-03T23:24:52.046Z,1.20
2018-12-03T23:27:19.621Z,1.02
2018-12-03T23:29:47.296Z,1.10
2018-12-03T23:32:14.831Z,1.42
2018-12-03T23:34:42.278Z,0.68
2018-12-03T23:37:09.725Z,1.17
2018-12-03T23:39:37.205Z,0.80
2018-12-03T23:42:04.817Z,1.00
2018-12-03T23:44:32.276Z,0.85
2018-12-03T23:46:59.723Z,0.95
2018-12-03T23:49:27.154Z,1.17
2018-12-03T23:51:54.720Z,1.00
2018-12-03T23:54:22.419Z,0.90
2018-12-03T23:56:49.873Z,0.80
2018-12-03T23:59:17.430Z,1.40
